sensor_id;sensor_type;location;lat;lon;timestamp;pressure;altitude;pressure_sealevel;temperature;humidity
67931;BME280;63902;52.000;5.954;2023-02-05T00:00:39;103272.81;;;4.84;100.00
67931;BME280;63902;52.000;5.954;2023-02-05T00:01:39;103273.72;;;4.85;100.00
67931;BME280;63902;52.000;5.954;2023-02-05T00:02:41;103277.19;;;4.84;100.00
67931;BME280;63902;52.000;5.954;2023-02-05T00:03:42;103282.44;;;4.84;100.00
67931;BME280;63902;52.000;5.954;2023-02-05T00:04:42;103279.78;;;4.82;100.00
67931;BME280;63902;52.000;5.954;2023-02-05T00:05:42;103276.34;;;4.85;100.00
67931;BME280;63902;52.000;5.954;2023-02-05T00:06:43;103270.16;;;4.83;100.00
67931;BME280;63902;52.000;5.954;2023-02-05T00:07:44;103267.53;;;4.84;100.00
67931;BME280;63902;52.000;5.954;2023-02-05T00:08:44;103267.53;;;4.84;100.00
67931;BME280;63902;52.000;5.954;2023-02-05T00:09:44;103257.88;;;4.82;100.00
67931;BME280;63902;52.000;5.954;2023-02-05T00:10:50;103259.63;;;4.83;100.00
67931;BME280;63902;52.000;5.954;2023-02-05T00:11:50;103268.41;;;4.83;100.00
67931;BME280;63902;52.000;5.954;2023-02-05T00:12:51;103269.28;;;4.84;100.00
67931;BME280;63902;52.000;5.954;2023-02-05T00:13:51;103263.13;;;4.82;100.00
67931;BME280;63902;52.000;5.954;2023-02-05T00:14:52;103265.78;;;4.83;100.00
67931;BME280;63902;52.000;5.954;2023-02-05T00:15:52;103256.97;;;4.81;100.00
67931;BME280;63902;52.000;5.954;2023-02-05T00:16:53;103259.66;;;4.84;100.00
67931;BME280;63902;52.000;5.954;2023-02-05T00:17:55;103257.00;;;4.83;100.00
67931;BME280;63902;52.000;5.954;2023-02-05T00:18:55;103252.69;;;4.85;100.00
67931;BME280;63902;52.000;5.954;2023-02-05T00:19:56;103242.09;;;4.82;100.00
67931;BME280;63902;52.000;5.954;2023-02-05T00:20:56;103243.00;;;4.84;100.00
67931;BME280;63902;52.000;5.954;2023-02-05T00:21:57;103235.09;;;4.84;100.00
67931;BME280;63902;52.000;5.954;2023-02-05T00:22:57;103232.47;;;4.84;100.00
67931;BME280;63902;52.000;5.954;2023-02-05T00:23:58;103227.22;;;4.84;100.00
67931;BME280;63902;52.000;5.954;2023-02-05T00:24:58;103234.22;;;4.83;100.00
67931;BME280;63902;52.000;5.954;2023-02-05T00:25:59;103212.13;;;4.75;100.00
67931;BME280;63902;52.000;5.954;2023-02-05T00:27:00;103223.78;;;4.86;100.00
67931;BME280;63902;52.000;5.954;2023-02-05T00:28:00;103217.63;;;4.86;100.00
67931;BME280;63902;52.000;5.954;2023-02-05T00:29:02;103214.06;;;4.84;100.00
67931;BME280;63902;52.000;5.954;2023-02-05T00:30:03;103225.53;;;4.86;100.00
67931;BME280;63902;52.000;5.954;2023-02-05T00:31:06;103226.38;;;4.85;100.00
67931;BME280;63902;52.000;5.954;2023-02-05T00:32:07;103217.53;;;4.81;100.00
67931;BME280;63902;52.000;5.954;2023-02-05T00:33:09;103221.97;;;4.84;100.00
67931;BME280;63902;52.000;5.954;2023-02-05T00:34:09;103234.28;;;4.85;100.00
67931;BME280;63902;52.000;5.954;2023-02-05T00:35:10;103234.28;;;4.85;100.00
67931;BME280;63902;52.000;5.954;2023-02-05T00:36:11;103234.28;;;4.85;100.00
67931;BME280;63902;52.000;5.954;2023-02-05T00:37:12;103230.78;;;4.86;100.00
67931;BME280;63902;52.000;5.954;2023-02-05T00:38:12;103231.72;;;4.88;100.00
67931;BME280;63902;52.000;5.954;2023-02-05T00:39:13;103227.34;;;4.88;100.00
67931;BME280;63902;52.000;5.954;2023-02-05T00:40:13;103226.50;;;4.91;100.00
67931;BME280;63902;52.000;5.954;2023-02-05T00:41:14;103232.69;;;4.93;100.00
67931;BME280;63902;52.000;5.954;2023-02-05T00:42:15;103221.31;;;4.94;100.00
67931;BME280;63902;52.000;5.954;2023-02-05T00:43:15;103218.69;;;4.96;100.00
67931;BME280;63902;52.000;5.954;2023-02-05T00:44:16;103205.59;;;4.97;100.00
67931;BME280;63902;52.000;5.954;2023-02-05T00:45:16;103200.34;;;4.97;100.00
67931;BME280;63902;52.000;5.954;2023-02-05T00:46:17;103194.16;;;4.95;100.00
67931;BME280;63902;52.000;5.954;2023-02-05T00:47:17;103190.69;;;4.96;100.00
67931;BME280;63902;52.000;5.954;2023-02-05T00:48:19;103200.38;;;4.99;100.00
67931;BME280;63902;52.000;5.954;2023-02-05T00:49:20;103196.00;;;5.01;100.00
67931;BME280;63902;52.000;5.954;2023-02-05T00:50:20;103202.19;;;5.03;100.00
67931;BME280;63902;52.000;5.954;2023-02-05T00:51:20;103202.31;;;5.09;100.00
67931;BME280;63902;52.000;5.954;2023-02-05T00:52:21;103203.31;;;5.14;100.00
67931;BME280;63902;52.000;5.954;2023-02-05T00:53:22;103199.84;;;5.16;100.00
67931;BME280;63902;52.000;5.954;2023-02-05T00:54:23;103190.97;;;5.11;100.00
67931;BME280;63902;52.000;5.954;2023-02-05T00:55:23;103210.38;;;5.16;100.00
67931;BME280;63902;52.000;5.954;2023-02-05T00:56:24;103212.13;;;5.18;100.00
67931;BME280;63902;52.000;5.954;2023-02-05T00:57:24;103212.13;;;5.18;100.00
67931;BME280;63902;52.000;5.954;2023-02-05T00:58:25;103201.59;;;5.16;100.00
67931;BME280;63902;52.000;5.954;2023-02-05T00:59:25;103203.47;;;5.22;100.00
67931;BME280;63902;52.000;5.954;2023-02-05T01:00:26;103207.06;;;5.27;100.00
67931;BME280;63902;52.000;5.954;2023-02-05T01:01:27;103214.97;;;5.28;100.00
67931;BME280;63902;52.000;5.954;2023-02-05T01:02:27;103207.97;;;5.29;100.00
67931;BME280;63902;52.000;5.954;2023-02-05T01:03:29;103215.91;;;5.30;100.00
67931;BME280;63902;52.000;5.954;2023-02-05T01:04:30;103211.56;;;5.32;100.00
67931;BME280;63902;52.000;5.954;2023-02-05T01:05:32;103204.50;;;5.30;100.00
67931;BME280;63902;52.000;5.954;2023-02-05T01:06:33;103199.28;;;5.33;100.00
67931;BME280;63902;52.000;5.954;2023-02-05T01:07:33;103204.56;;;5.34;100.00
67931;BME280;63902;52.000;5.954;2023-02-05T01:08:34;103199.34;;;5.36;100.00
67931;BME280;63902;52.000;5.954;2023-02-05T01:09:35;103198.47;;;5.35;100.00
67931;BME280;63902;52.000;5.954;2023-02-05T01:10:35;103188.81;;;5.36;100.00
67931;BME280;63902;52.000;5.954;2023-02-05T01:11:36;103191.41;;;5.34;100.00
67931;BME280;63902;52.000;5.954;2023-02-05T01:12:36;103194.13;;;5.39;100.00
67931;BME280;63902;52.000;5.954;2023-02-05T01:13:37;103193.25;;;5.40;100.00
67931;BME280;63902;52.000;5.954;2023-02-05T01:14:38;103183.66;;;5.41;100.00
67931;BME280;63902;52.000;5.954;2023-02-05T01:15:39;103184.41;;;5.35;100.00
67931;BME280;63902;52.000;5.954;2023-02-05T01:16:39;103204.72;;;5.42;100.00
67931;BME280;63902;52.000;5.954;2023-02-05T01:17:40;103206.47;;;5.43;100.00
67931;BME280;63902;52.000;5.954;2023-02-05T01:18:42;103203.84;;;5.43;100.00
67931;BME280;63902;52.000;5.954;2023-02-05T01:19:42;103205.59;;;5.41;100.00
67931;BME280;63902;52.000;5.954;2023-02-05T01:20:43;103207.38;;;5.44;100.00
67931;BME280;63902;52.000;5.954;2023-02-05T01:21:43;103209.16;;;5.45;100.00
67931;BME280;63902;52.000;5.954;2023-02-05T01:22:44;103215.28;;;5.45;100.00
67931;BME280;63902;52.000;5.954;2023-02-05T01:23:44;103216.19;;;5.46;100.00
67931;BME280;63902;52.000;5.954;2023-02-05T01:24:44;103205.59;;;5.41;100.00
67931;BME280;63902;52.000;5.954;2023-02-05T01:25:45;103213.53;;;5.44;100.00
67931;BME280;63902;52.000;5.954;2023-02-05T01:26:45;103211.78;;;5.45;100.00
67931;BME280;63902;52.000;5.954;2023-02-05T01:27:46;103217.16;;;5.51;100.00
67931;BME280;63902;52.000;5.954;2023-02-05T01:28:46;103224.16;;;5.50;100.00
67931;BME280;63902;52.000;5.954;2023-02-05T01:29:47;103224.16;;;5.50;100.00
67931;BME280;63902;52.000;5.954;2023-02-05T01:30:48;103197.69;;;5.43;100.00
67931;BME280;63902;52.000;5.954;2023-02-05T01:31:48;103207.50;;;5.51;100.00
67931;BME280;63902;52.000;5.954;2023-02-05T01:32:48;103213.66;;;5.50;100.00
67931;BME280;63902;52.000;5.954;2023-02-05T01:33:50;103213.69;;;5.53;100.00
67931;BME280;63902;52.000;5.954;2023-02-05T01:34:51;103211.06;;;5.53;100.00
67931;BME280;63902;52.000;5.954;2023-02-05T01:35:51;103208.38;;;5.50;100.00
67931;BME280;63902;52.000;5.954;2023-02-05T01:36:52;103212.81;;;5.53;100.00
67931;BME280;63902;52.000;5.954;2023-02-05T01:37:52;103213.69;;;5.52;100.00
67931;BME280;63902;52.000;5.954;2023-02-05T01:38:53;103204.88;;;5.51;100.00
67931;BME280;63902;52.000;5.954;2023-02-05T01:39:53;103211.09;;;5.55;100.00
67931;BME280;63902;52.000;5.954;2023-02-05T01:40:54;103212.91;;;5.57;100.00
67931;BME280;63902;52.000;5.954;2023-02-05T01:41:54;103219.06;;;5.58;100.00
67931;BME280;63902;52.000;5.954;2023-02-05T01:42:55;103217.31;;;5.60;100.00
67931;BME280;63902;52.000;5.954;2023-02-05T01:44:06;103213.81;;;5.59;100.00
67931;BME280;63902;52.000;5.954;2023-02-05T01:46:59;103207.59;;;5.56;100.00
67931;BME280;63902;52.000;5.954;2023-02-05T01:48:01;103202.38;;;5.57;100.00
67931;BME280;63902;52.000;5.954;2023-02-05T01:49:05;103208.47;;;5.56;100.00
67931;BME280;63902;52.000;5.954;2023-02-05T01:50:07;103208.53;;;5.59;100.00
67931;BME280;63902;52.000;5.954;2023-02-05T01:51:09;103212.97;;;5.62;100.00
67931;BME280;63902;52.000;5.954;2023-02-05T01:52:13;103205.13;;;5.64;100.00
67931;BME280;63902;52.000;5.954;2023-02-05T01:53:18;103206.88;;;5.65;100.00
67931;BME280;63902;52.000;5.954;2023-02-05T01:54:21;103207.69;;;5.60;100.00
67931;BME280;63902;52.000;5.954;2023-02-05T01:55:25;103209.50;;;5.63;100.00
67931;BME280;63902;52.000;5.954;2023-02-05T01:56:28;103211.25;;;5.64;100.00
67931;BME280;63902;52.000;5.954;2023-02-05T01:57:31;103211.25;;;5.64;100.00
67931;BME280;63902;52.000;5.954;2023-02-05T01:58:33;103220.03;;;5.63;100.00
67931;BME280;63902;52.000;5.954;2023-02-05T01:59:36;103214.75;;;5.63;100.00
67931;BME280;63902;52.000;5.954;2023-02-05T02:00:38;103205.94;;;5.63;100.00
67931;BME280;63902;52.000;5.954;2023-02-05T02:01:39;103209.50;;;5.63;100.00
67931;BME280;63902;52.000;5.954;2023-02-05T02:02:40;103211.22;;;5.63;100.00
67931;BME280;63902;52.000;5.954;2023-02-05T02:03:41;103200.69;;;5.63;100.00
67931;BME280;63902;52.000;5.954;2023-02-05T02:04:44;103204.22;;;5.63;100.00
67931;BME280;63902;52.000;5.954;2023-02-05T02:05:46;103202.44;;;5.62;100.00
67931;BME280;63902;52.000;5.954;2023-02-05T02:06:46;103197.22;;;5.64;100.00
67931;BME280;63902;52.000;5.954;2023-02-05T02:07:47;103199.03;;;5.66;100.00
67931;BME280;63902;52.000;5.954;2023-02-05T02:08:47;103194.63;;;5.67;100.00
67931;BME280;63902;52.000;5.954;2023-02-05T02:09:49;103193.69;;;5.63;100.00
67931;BME280;63902;52.000;5.954;2023-02-05T02:10:51;103189.31;;;5.64;100.00
67931;BME280;63902;52.000;5.954;2023-02-05T02:11:53;103185.81;;;5.65;100.00
67931;BME280;63902;52.000;5.954;2023-02-05T02:12:55;103182.31;;;5.64;100.00
67931;BME280;63902;52.000;5.954;2023-02-05T02:13:57;103195.50;;;5.67;100.00
67931;BME280;63902;52.000;5.954;2023-02-05T02:15:02;103190.16;;;5.63;100.00
67931;BME280;63902;52.000;5.954;2023-02-05T02:16:05;103204.28;;;5.68;100.00
67931;BME280;63902;52.000;5.954;2023-02-05T02:17:06;103191.06;;;5.63;100.00
67931;BME280;63902;52.000;5.954;2023-02-05T02:18:08;103192.00;;;5.68;100.00
67931;BME280;63902;52.000;5.954;2023-02-05T02:19:16;103189.41;;;5.70;100.00
67931;BME280;63902;52.000;5.954;2023-02-05T02:20:21;103177.13;;;5.69;100.00
67931;BME280;63902;52.000;5.954;2023-02-05T02:23:17;103172.69;;;5.66;100.00
67931;BME280;63902;52.000;5.954;2023-02-05T02:24:47;103174.41;;;5.66;100.00
67931;BME280;63902;52.000;5.954;2023-02-05T02:27:38;103155.03;;;5.60;100.00
67931;BME280;63902;52.000;5.954;2023-02-05T02:28:42;103163.88;;;5.64;100.00
67931;BME280;63902;52.000;5.954;2023-02-05T02:29:50;103163.88;;;5.66;100.00
67931;BME280;63902;52.000;5.954;2023-02-05T02:30:58;103160.41;;;5.67;100.00
67931;BME280;63902;52.000;5.954;2023-02-05T02:32:07;103141.88;;;5.60;100.00
67931;BME280;63902;52.000;5.954;2023-02-05T02:33:17;103163.91;;;5.67;100.00
67931;BME280;63902;52.000;5.954;2023-02-05T02:34:24;103158.66;;;5.67;100.00
67931;BME280;63902;52.000;5.954;2023-02-05T02:35:31;103165.66;;;5.67;100.00
67931;BME280;63902;52.000;5.954;2023-02-05T02:36:36;103161.28;;;5.67;100.00
67931;BME280;63902;52.000;5.954;2023-02-05T02:37:44;103162.16;;;5.66;100.00
67931;BME280;63902;52.000;5.954;2023-02-05T02:38:52;103163.91;;;5.67;100.00
67931;BME280;63902;52.000;5.954;2023-02-05T02:39:57;103154.25;;;5.66;100.00
67931;BME280;63902;52.000;5.954;2023-02-05T02:41:03;103152.47;;;5.65;100.00
67931;BME280;63902;52.000;5.954;2023-02-05T02:42:10;103153.34;;;5.66;100.00
67931;BME280;63902;52.000;5.954;2023-02-05T02:43:16;103155.13;;;5.67;100.00
67931;BME280;63902;52.000;5.954;2023-02-05T02:44:22;103162.16;;;5.68;100.00
67931;BME280;63902;52.000;5.954;2023-02-05T02:45:28;103156.06;;;5.70;100.00
67931;BME280;63902;52.000;5.954;2023-02-05T02:46:31;103155.19;;;5.71;100.00
67931;BME280;63902;52.000;5.954;2023-02-05T02:47:36;103153.44;;;5.70;100.00
67931;BME280;63902;52.000;5.954;2023-02-05T02:48:39;103157.81;;;5.71;100.00
67931;BME280;63902;52.000;5.954;2023-02-05T02:49:43;103156.94;;;5.71;100.00
67931;BME280;63902;52.000;5.954;2023-02-05T02:50:48;103168.34;;;5.71;100.00
67931;BME280;63902;52.000;5.954;2023-02-05T02:51:50;103166.59;;;5.69;100.00
67931;BME280;63902;52.000;5.954;2023-02-05T02:52:52;103168.41;;;5.73;100.00
67931;BME280;63902;52.000;5.954;2023-02-05T02:53:57;103169.28;;;5.72;100.00
67931;BME280;63902;52.000;5.954;2023-02-05T02:54:59;103158.69;;;5.70;100.00
67931;BME280;63902;52.000;5.954;2023-02-05T02:56:01;103157.81;;;5.71;100.00
67931;BME280;63902;52.000;5.954;2023-02-05T02:57:06;103159.63;;;5.72;100.00
67931;BME280;63902;52.000;5.954;2023-02-05T02:58:12;103148.22;;;5.73;100.00
67931;BME280;63902;52.000;5.954;2023-02-05T02:59:17;103148.25;;;5.75;100.00
67931;BME280;63902;52.000;5.954;2023-02-05T03:00:22;103151.72;;;5.74;100.00
67931;BME280;63902;52.000;5.954;2023-02-05T03:01:27;103148.16;;;5.70;100.00
67931;BME280;63902;52.000;5.954;2023-02-05T03:02:31;103144.75;;;5.74;100.00
67931;BME280;63902;52.000;5.954;2023-02-05T03:03:35;103145.63;;;5.75;100.00
67931;BME280;63902;52.000;5.954;2023-02-05T03:04:38;103138.59;;;5.77;100.00
67931;BME280;63902;52.000;5.954;2023-02-05T03:05:41;103134.25;;;5.77;100.00
67931;BME280;63902;52.000;5.954;2023-02-05T03:06:44;103131.63;;;5.77;100.00
67931;BME280;63902;52.000;5.954;2023-02-05T03:07:48;103123.72;;;5.77;100.00
67931;BME280;63902;52.000;5.954;2023-02-05T03:08:53;103138.59;;;5.77;100.00
67931;BME280;63902;52.000;5.954;2023-02-05T03:10:01;103129.81;;;5.76;100.00
67931;BME280;63902;52.000;5.954;2023-02-05T03:11:05;103135.97;;;5.77;100.00
67931;BME280;63902;52.000;5.954;2023-02-05T03:12:08;103131.59;;;5.76;100.00
67931;BME280;63902;52.000;5.954;2023-02-05T03:13:10;103128.94;;;5.76;100.00
67931;BME280;63902;52.000;5.954;2023-02-05T03:14:11;103125.44;;;5.75;100.00
67931;BME280;63902;52.000;5.954;2023-02-05T03:15:13;103113.97;;;5.72;100.00
67931;BME280;63902;52.000;5.954;2023-02-05T03:16:14;103123.69;;;5.76;100.00
67931;BME280;63902;52.000;5.954;2023-02-05T03:17:15;103130.69;;;5.75;100.00
67931;BME280;63902;52.000;5.954;2023-02-05T03:18:17;103128.06;;;5.75;100.00
67931;BME280;63902;52.000;5.954;2023-02-05T03:19:18;103124.56;;;5.75;100.00
67931;BME280;63902;52.000;5.954;2023-02-05T03:20:22;103123.69;;;5.74;100.00
67931;BME280;63902;52.000;5.954;2023-02-05T03:21:25;103130.69;;;5.75;100.00
67931;BME280;63902;52.000;5.954;2023-02-05T03:22:27;103140.34;;;5.75;100.00
67931;BME280;63902;52.000;5.954;2023-02-05T03:23:28;103136.84;;;5.74;100.00
67931;BME280;63902;52.000;5.954;2023-02-05T03:24:29;103142.09;;;5.74;100.00
67931;BME280;63902;52.000;5.954;2023-02-05T03:25:30;103139.47;;;5.74;100.00
67931;BME280;63902;52.000;5.954;2023-02-05T03:26:32;103141.25;;;5.75;100.00
67931;BME280;63902;52.000;5.954;2023-02-05T03:27:33;103143.88;;;5.77;100.00
67931;BME280;63902;52.000;5.954;2023-02-05T03:28:34;103136.00;;;5.78;100.00
67931;BME280;63902;52.000;5.954;2023-02-05T03:29:36;103135.97;;;5.77;100.00
67931;BME280;63902;52.000;5.954;2023-02-05T03:30:48;103135.94;;;5.74;100.00
67931;BME280;63902;52.000;5.954;2023-02-05T03:31:56;103150.88;;;5.75;100.00
67931;BME280;63902;52.000;5.954;2023-02-05T03:33:10;103153.53;;;5.75;100.00
67931;BME280;63902;52.000;5.954;2023-02-05T03:34:21;103154.41;;;5.75;100.00
67931;BME280;63902;52.000;5.954;2023-02-05T03:35:30;103159.66;;;5.75;100.00
67931;BME280;63902;52.000;5.954;2023-02-05T03:36:37;103164.94;;;5.75;100.00
67931;BME280;63902;52.000;5.954;2023-02-05T03:37:46;103170.19;;;5.75;100.00
67931;BME280;63902;52.000;5.954;2023-02-05T03:39:05;103170.19;;;5.75;100.00
67931;BME280;63902;52.000;5.954;2023-02-05T03:40:17;103170.16;;;5.74;100.00
67931;BME280;63902;52.000;5.954;2023-02-05T03:41:26;103174.59;;;5.76;100.00
67931;BME280;63902;52.000;5.954;2023-02-05T03:42:36;103171.09;;;5.76;100.00
67931;BME280;63902;52.000;5.954;2023-02-05T03:43:43;103171.97;;;5.76;100.00
67931;BME280;63902;52.000;5.954;2023-02-05T03:45:03;103167.56;;;5.77;100.00
67931;BME280;63902;52.000;5.954;2023-02-05T03:46:14;103157.97;;;5.77;100.00
67931;BME280;63902;52.000;5.954;2023-02-05T03:47:24;103156.19;;;5.78;100.00
67931;BME280;63902;52.000;5.954;2023-02-05T03:48:46;103148.25;;;5.76;100.00
67931;BME280;63902;52.000;5.954;2023-02-05T03:49:55;103157.91;;;5.76;100.00
67931;BME280;63902;52.000;5.954;2023-02-05T03:51:12;103158.78;;;5.76;100.00
67931;BME280;63902;52.000;5.954;2023-02-05T03:52:18;103156.16;;;5.75;100.00
67931;BME280;63902;52.000;5.954;2023-02-05T03:53:26;103150.88;;;5.75;100.00
67931;BME280;63902;52.000;5.954;2023-02-05T03:54:34;103144.75;;;5.74;100.00
67931;BME280;63902;52.000;5.954;2023-02-05T03:55:41;103151.72;;;5.72;100.00
67931;BME280;63902;52.000;5.954;2023-02-05T03:56:50;103150.84;;;5.73;100.00
67931;BME280;63902;52.000;5.954;2023-02-05T03:57:56;103160.53;;;5.74;100.00
67931;BME280;63902;52.000;5.954;2023-02-05T03:58:59;103152.66;;;5.74;100.00
67931;BME280;63902;52.000;5.954;2023-02-05T04:00:00;103151.72;;;5.74;100.00
67931;BME280;63902;52.000;5.954;2023-02-05T04:01:02;103142.91;;;5.70;100.00
67931;BME280;63902;52.000;5.954;2023-02-05T04:02:04;103144.66;;;5.71;100.00
67931;BME280;63902;52.000;5.954;2023-02-05T04:03:05;103144.66;;;5.71;100.00
67931;BME280;63902;52.000;5.954;2023-02-05T04:04:06;103155.19;;;5.70;100.00
67931;BME280;63902;52.000;5.954;2023-02-05T04:05:06;103148.16;;;5.70;100.00
67931;BME280;63902;52.000;5.954;2023-02-05T04:06:07;103148.16;;;5.70;100.00
67931;BME280;63902;52.000;5.954;2023-02-05T04:07:07;103142.91;;;5.70;100.00
67931;BME280;63902;52.000;5.954;2023-02-05T04:08:08;103149.06;;;5.71;100.00
67931;BME280;63902;52.000;5.954;2023-02-05T04:09:09;103149.94;;;5.71;100.00
67931;BME280;63902;52.000;5.954;2023-02-05T04:10:10;103146.41;;;5.71;100.00
67931;BME280;63902;52.000;5.954;2023-02-05T04:11:11;103149.06;;;5.71;100.00
67931;BME280;63902;52.000;5.954;2023-02-05T04:12:11;103146.41;;;5.71;100.00
67931;BME280;63902;52.000;5.954;2023-02-05T04:13:11;103151.72;;;5.72;100.00
67931;BME280;63902;52.000;5.954;2023-02-05T04:14:12;103145.56;;;5.72;100.00
67931;BME280;63902;52.000;5.954;2023-02-05T04:15:13;103143.72;;;5.66;100.00
67931;BME280;63902;52.000;5.954;2023-02-05T04:16:13;103153.47;;;5.73;100.00
67931;BME280;63902;52.000;5.954;2023-02-05T04:17:15;103145.53;;;5.69;100.00
67931;BME280;63902;52.000;5.954;2023-02-05T04:18:16;103147.34;;;5.73;100.00
67931;BME280;63902;52.000;5.954;2023-02-05T04:19:17;103143.78;;;5.71;100.00
67931;BME280;63902;52.000;5.954;2023-02-05T04:20:17;103138.47;;;5.68;100.00
67931;BME280;63902;52.000;5.954;2023-02-05T04:21:18;103146.47;;;5.72;100.00
67931;BME280;63902;52.000;5.954;2023-02-05T04:22:18;103150.84;;;5.72;100.00
67931;BME280;63902;52.000;5.954;2023-02-05T04:23:19;103149.06;;;5.71;100.00
67931;BME280;63902;52.000;5.954;2023-02-05T04:24:19;103151.69;;;5.69;100.00
67931;BME280;63902;52.000;5.954;2023-02-05T04:25:20;103145.53;;;5.69;100.00
67931;BME280;63902;52.000;5.954;2023-02-05T04:26:20;103153.44;;;5.69;100.00
67931;BME280;63902;52.000;5.954;2023-02-05T04:27:20;103146.31;;;5.63;100.00
67931;BME280;63902;52.000;5.954;2023-02-05T04:28:21;103136.63;;;5.60;100.00
67931;BME280;63902;52.000;5.954;2023-02-05T04:29:21;103146.38;;;5.68;100.00
67931;BME280;63902;52.000;5.954;2023-02-05T04:30:22;103144.59;;;5.67;100.00
67931;BME280;63902;52.000;5.954;2023-02-05T04:31:22;103141.09;;;5.68;100.00
67931;BME280;63902;52.000;5.954;2023-02-05T04:32:25;103141.97;;;5.67;100.00
67931;BME280;63902;52.000;5.954;2023-02-05T04:33:25;103135.00;;;5.69;100.00
67931;BME280;63902;52.000;5.954;2023-02-05T04:34:26;103140.25;;;5.69;100.00
67931;BME280;63902;52.000;5.954;2023-02-05T04:35:26;103136.72;;;5.67;100.00
67931;BME280;63902;52.000;5.954;2023-02-05T04:36:27;103134.91;;;5.66;100.00
67931;BME280;63902;52.000;5.954;2023-02-05T04:37:27;103140.13;;;5.63;100.00
67931;BME280;63902;52.000;5.954;2023-02-05T04:38:27;103144.56;;;5.65;100.00
67931;BME280;63902;52.000;5.954;2023-02-05T04:39:28;103138.41;;;5.65;100.00
67931;BME280;63902;52.000;5.954;2023-02-05T04:40:29;103142.84;;;5.67;100.00
67931;BME280;63902;52.000;5.954;2023-02-05T04:41:29;103145.44;;;5.66;100.00
67931;BME280;63902;52.000;5.954;2023-02-05T04:42:30;103139.34;;;5.67;100.00
67931;BME280;63902;52.000;5.954;2023-02-05T04:43:30;103141.97;;;5.67;100.00
67931;BME280;63902;52.000;5.954;2023-02-05T04:44:30;103138.47;;;5.66;100.00
67931;BME280;63902;52.000;5.954;2023-02-05T04:45:31;103140.19;;;5.66;100.00
67931;BME280;63902;52.000;5.954;2023-02-05T04:46:31;103140.19;;;5.66;100.00
67931;BME280;63902;52.000;5.954;2023-02-05T04:47:33;103141.97;;;5.67;100.00
67931;BME280;63902;52.000;5.954;2023-02-05T04:48:34;103115.38;;;5.51;100.00
67931;BME280;63902;52.000;5.954;2023-02-05T04:49:35;103149.00;;;5.68;100.00
67931;BME280;63902;52.000;5.954;2023-02-05T04:50:36;103142.81;;;5.64;100.00
67931;BME280;63902;52.000;5.954;2023-02-05T04:51:37;103144.59;;;5.67;100.00
67931;BME280;63902;52.000;5.954;2023-02-05T04:52:38;103142.81;;;5.66;100.00
67931;BME280;63902;52.000;5.954;2023-02-05T04:53:38;103129.56;;;5.59;100.00
67931;BME280;63902;52.000;5.954;2023-02-05T04:54:39;103139.34;;;5.67;100.00
67931;BME280;63902;52.000;5.954;2023-02-05T04:55:39;103144.66;;;5.70;100.00
67931;BME280;63902;52.000;5.954;2023-02-05T04:56:40;103138.47;;;5.68;100.00
67931;BME280;63902;52.000;5.954;2023-02-05T04:57:40;103137.63;;;5.69;100.00
67931;BME280;63902;52.000;5.954;2023-02-05T04:58:41;103141.97;;;5.68;100.00
67931;BME280;63902;52.000;5.954;2023-02-05T04:59:42;103136.72;;;5.67;100.00
67931;BME280;63902;52.000;5.954;2023-02-05T05:00:42;103134.03;;;5.65;100.00
67931;BME280;63902;52.000;5.954;2023-02-05T05:01:43;103136.66;;;5.64;100.00
67931;BME280;63902;52.000;5.954;2023-02-05T05:02:44;103138.41;;;5.65;100.00
67931;BME280;63902;52.000;5.954;2023-02-05T05:03:45;103135.78;;;5.65;100.00
67931;BME280;63902;52.000;5.954;2023-02-05T05:04:46;103148.94;;;5.63;100.00
67931;BME280;63902;52.000;5.954;2023-02-05T05:05:46;103146.31;;;5.63;100.00
67931;BME280;63902;52.000;5.954;2023-02-05T05:06:47;103137.50;;;5.63;100.00
67931;BME280;63902;52.000;5.954;2023-02-05T05:07:47;103137.44;;;5.58;100.00
67931;BME280;63902;52.000;5.954;2023-02-05T05:08:48;103144.50;;;5.60;100.00
67931;BME280;63902;52.000;5.954;2023-02-05T05:09:48;103148.91;;;5.61;100.00
67931;BME280;63902;52.000;5.954;2023-02-05T05:10:49;103148.03;;;5.61;100.00
67931;BME280;63902;52.000;5.954;2023-02-05T05:11:49;103140.97;;;5.60;100.00
67931;BME280;63902;52.000;5.954;2023-02-05T05:12:50;103139.25;;;5.60;100.00
67931;BME280;63902;52.000;5.954;2023-02-05T05:13:50;103148.03;;;5.61;100.00
67931;BME280;63902;52.000;5.954;2023-02-05T05:14:51;103143.53;;;5.55;100.00
67931;BME280;63902;52.000;5.954;2023-02-05T05:15:54;103143.59;;;5.60;100.00
67931;BME280;63902;52.000;5.954;2023-02-05T05:16:55;103156.75;;;5.60;100.00
67931;BME280;63902;52.000;5.954;2023-02-05T05:17:57;103154.13;;;5.58;100.00
67931;BME280;63902;52.000;5.954;2023-02-05T05:18:57;103146.22;;;5.58;100.00
67931;BME280;63902;52.000;5.954;2023-02-05T05:19:57;103143.56;;;5.57;100.00
67931;BME280;63902;52.000;5.954;2023-02-05T05:20:58;103144.47;;;5.57;100.00
67931;BME280;63902;52.000;5.954;2023-02-05T05:21:59;103138.22;;;5.52;100.00
67931;BME280;63902;52.000;5.954;2023-02-05T05:23:00;103149.72;;;5.57;100.00
67931;BME280;63902;52.000;5.954;2023-02-05T05:24:00;103151.44;;;5.57;100.00
67931;BME280;63902;52.000;5.954;2023-02-05T05:25:01;103148.81;;;5.57;100.00
67931;BME280;63902;52.000;5.954;2023-02-05T05:26:03;103152.34;;;5.57;100.00
67931;BME280;63902;52.000;5.954;2023-02-05T05:27:04;103139.06;;;5.50;100.00
67931;BME280;63902;52.000;5.954;2023-02-05T05:28:04;103148.75;;;5.54;100.00
67931;BME280;63902;52.000;5.954;2023-02-05T05:29:04;103148.81;;;5.55;100.00
67931;BME280;63902;52.000;5.954;2023-02-05T05:30:06;103140.91;;;5.55;100.00
67931;BME280;63902;52.000;5.954;2023-02-05T05:31:08;103146.13;;;5.54;100.00
67931;BME280;63902;52.000;5.954;2023-02-05T05:32:08;103145.25;;;5.53;100.00